sensor_id;sensor_type;location;lat;lon;timestamp;temperature;humidity
73252;DHT22;61473;50.834;4.552;2022-08-19T00:01:24;28.80;52.70
73252;DHT22;61473;50.834;4.552;2022-08-19T00:03:50;28.80;52.70
73252;DHT22;61473;50.834;4.552;2022-08-19T00:06:16;28.80;53.40
73252;DHT22;61473;50.834;4.552;2022-08-19T00:08:42;28.80;52.70
73252;DHT22;61473;50.834;4.552;2022-08-19T00:11:09;28.80;52.70
73252;DHT22;61473;50.834;4.552;2022-08-19T00:13:34;28.80;52.70
73252;DHT22;61473;50.834;4.552;2022-08-19T00:16:01;28.80;52.70
73252;DHT22;61473;50.834;4.552;2022-08-19T00:18:27;28.80;52.70
73252;DHT22;61473;50.834;4.552;2022-08-19T00:20:53;28.80;52.70
73252;DHT22;61473;50.834;4.552;2022-08-19T00:23:19;28.70;52.70
73252;DHT22;61473;50.834;4.552;2022-08-19T00:25:45;28.80;52.80
73252;DHT22;61473;50.834;4.552;2022-08-19T00:28:11;28.80;52.80
73252;DHT22;61473;50.834;4.552;2022-08-19T00:30:37;28.80;52.80
73252;DHT22;61473;50.834;4.552;2022-08-19T00:33:03;28.80;52.80
73252;DHT22;61473;50.834;4.552;2022-08-19T00:35:28;28.70;52.70
73252;DHT22;61473;50.834;4.552;2022-08-19T00:37:55;28.70;52.60
73252;DHT22;61473;50.834;4.552;2022-08-19T00:40:21;28.70;52.70
73252;DHT22;61473;50.834;4.552;2022-08-19T00:42:47;28.70;52.70
73252;DHT22;61473;50.834;4.552;2022-08-19T00:45:17;28.70;52.70
73252;DHT22;61473;50.834;4.552;2022-08-19T00:47:44;28.70;53.40
73252;DHT22;61473;50.834;4.552;2022-08-19T00:50:14;28.70;52.70
73252;DHT22;61473;50.834;4.552;2022-08-19T00:52:43;28.70;52.70
73252;DHT22;61473;50.834;4.552;2022-08-19T00:55:14;28.70;52.80
73252;DHT22;61473;50.834;4.552;2022-08-19T00:57:45;28.60;52.70
73252;DHT22;61473;50.834;4.552;2022-08-19T01:00:16;28.60;52.70
73252;DHT22;61473;50.834;4.552;2022-08-19T01:02:43;28.60;52.80
73252;DHT22;61473;50.834;4.552;2022-08-19T01:05:11;28.60;52.80
73252;DHT22;61473;50.834;4.552;2022-08-19T01:07:39;28.60;52.70
73252;DHT22;61473;50.834;4.552;2022-08-19T01:10:08;28.60;52.70
73252;DHT22;61473;50.834;4.552;2022-08-19T01:12:34;28.60;52.70
73252;DHT22;61473;50.834;4.552;2022-08-19T01:15:00;28.60;52.80
73252;DHT22;61473;50.834;4.552;2022-08-19T01:17:26;28.60;52.80
73252;DHT22;61473;50.834;4.552;2022-08-19T01:19:52;28.60;52.80
73252;DHT22;61473;50.834;4.552;2022-08-19T01:24:47;28.60;52.80
73252;DHT22;61473;50.834;4.552;2022-08-19T01:27:12;28.60;52.80
73252;DHT22;61473;50.834;4.552;2022-08-19T01:29:41;28.60;52.80
73252;DHT22;61473;50.834;4.552;2022-08-19T01:32:10;28.50;52.70
73252;DHT22;61473;50.834;4.552;2022-08-19T01:34:36;28.60;52.80
73252;DHT22;61473;50.834;4.552;2022-08-19T01:37:09;28.50;52.70
73252;DHT22;61473;50.834;4.552;2022-08-19T01:39:37;28.60;52.80
73252;DHT22;61473;50.834;4.552;2022-08-19T01:42:03;28.50;52.80
73252;DHT22;61473;50.834;4.552;2022-08-19T01:44:30;28.50;52.80
73252;DHT22;61473;50.834;4.552;2022-08-19T01:46:56;28.50;52.80
73252;DHT22;61473;50.834;4.552;2022-08-19T01:49:23;28.50;52.80
73252;DHT22;61473;50.834;4.552;2022-08-19T01:51:50;28.50;52.80
73252;DHT22;61473;50.834;4.552;2022-08-19T01:54:18;28.50;52.80
73252;DHT22;61473;50.834;4.552;2022-08-19T01:56:44;28.50;52.80
73252;DHT22;61473;50.834;4.552;2022-08-19T01:59:16;28.50;52.80
73252;DHT22;61473;50.834;4.552;2022-08-19T02:01:42;28.50;52.80
73252;DHT22;61473;50.834;4.552;2022-08-19T02:04:08;28.50;52.80
73252;DHT22;61473;50.834;4.552;2022-08-19T02:06:34;28.50;52.80
73252;DHT22;61473;50.834;4.552;2022-08-19T02:09:00;28.50;52.80
73252;DHT22;61473;50.834;4.552;2022-08-19T02:11:29;28.40;52.80
73252;DHT22;61473;50.834;4.552;2022-08-19T02:13:57;28.50;52.90
73252;DHT22;61473;50.834;4.552;2022-08-19T02:16:23;28.50;52.80
73252;DHT22;61473;50.834;4.552;2022-08-19T02:18:50;28.40;52.80
73252;DHT22;61473;50.834;4.552;2022-08-19T02:21:17;28.40;52.80
73252;DHT22;61473;50.834;4.552;2022-08-19T02:23:43;28.50;52.80
73252;DHT22;61473;50.834;4.552;2022-08-19T02:26:10;28.40;52.80
73252;DHT22;61473;50.834;4.552;2022-08-19T02:28:36;28.40;52.80
73252;DHT22;61473;50.834;4.552;2022-08-19T02:31:03;28.40;52.80
73252;DHT22;61473;50.834;4.552;2022-08-19T02:33:29;28.40;52.80
73252;DHT22;61473;50.834;4.552;2022-08-19T02:35:55;28.40;52.80
73252;DHT22;61473;50.834;4.552;2022-08-19T02:38:20;28.40;52.80
73252;DHT22;61473;50.834;4.552;2022-08-19T02:41:02;28.40;52.80
73252;DHT22;61473;50.834;4.552;2022-08-19T02:43:29;28.40;52.80
73252;DHT22;61473;50.834;4.552;2022-08-19T02:45:55;28.40;52.80
73252;DHT22;61473;50.834;4.552;2022-08-19T02:48:23;28.40;52.80
73252;DHT22;61473;50.834;4.552;2022-08-19T02:50:51;28.40;53.50
73252;DHT22;61473;50.834;4.552;2022-08-19T02:53:27;28.40;52.80
73252;DHT22;61473;50.834;4.552;2022-08-19T02:55:53;28.30;52.80
73252;DHT22;61473;50.834;4.552;2022-08-19T02:58:19;28.40;52.80
73252;DHT22;61473;50.834;4.552;2022-08-19T03:00:48;28.30;52.80
73252;DHT22;61473;50.834;4.552;2022-08-19T03:03:15;28.30;52.80
73252;DHT22;61473;50.834;4.552;2022-08-19T03:05:41;28.30;52.80
73252;DHT22;61473;50.834;4.552;2022-08-19T03:08:07;28.40;52.80
73252;DHT22;61473;50.834;4.552;2022-08-19T03:10:43;28.40;52.90
73252;DHT22;61473;50.834;4.552;2022-08-19T03:13:10;28.40;52.80
73252;DHT22;61473;50.834;4.552;2022-08-19T03:15:40;28.30;52.80
73252;DHT22;61473;50.834;4.552;2022-08-19T03:18:06;28.40;52.80
73252;DHT22;61473;50.834;4.552;2022-08-19T03:20:32;28.30;52.80
73252;DHT22;61473;50.834;4.552;2022-08-19T03:22:58;28.30;52.80
73252;DHT22;61473;50.834;4.552;2022-08-19T03:25:24;28.30;52.80
73252;DHT22;61473;50.834;4.552;2022-08-19T03:27:49;28.30;52.80
73252;DHT22;61473;50.834;4.552;2022-08-19T03:30:15;28.30;52.80
73252;DHT22;61473;50.834;4.552;2022-08-19T03:32:41;28.30;52.80
73252;DHT22;61473;50.834;4.552;2022-08-19T03:35:07;28.30;52.80
73252;DHT22;61473;50.834;4.552;2022-08-19T03:37:33;28.30;52.90
73252;DHT22;61473;50.834;4.552;2022-08-19T03:40:00;28.30;52.90
73252;DHT22;61473;50.834;4.552;2022-08-19T03:42:27;28.30;53.50
73252;DHT22;61473;50.834;4.552;2022-08-19T03:44:53;28.30;52.80
73252;DHT22;61473;50.834;4.552;2022-08-19T03:47:18;28.30;52.80
73252;DHT22;61473;50.834;4.552;2022-08-19T03:49:44;28.30;52.80
73252;DHT22;61473;50.834;4.552;2022-08-19T03:52:10;28.30;52.80
73252;DHT22;61473;50.834;4.552;2022-08-19T03:54:37;28.20;52.80
73252;DHT22;61473;50.834;4.552;2022-08-19T03:57:03;28.30;52.80
73252;DHT22;61473;50.834;4.552;2022-08-19T03:59:32;28.30;52.80
73252;DHT22;61473;50.834;4.552;2022-08-19T04:01:59;28.30;52.80
73252;DHT22;61473;50.834;4.552;2022-08-19T04:04:25;28.20;52.70
73252;DHT22;61473;50.834;4.552;2022-08-19T04:06:51;28.20;52.70
73252;DHT22;61473;50.834;4.552;2022-08-19T04:09:19;28.20;52.70
73252;DHT22;61473;50.834;4.552;2022-08-19T04:11:53;28.30;52.80
73252;DHT22;61473;50.834;4.552;2022-08-19T04:14:21;28.20;52.60
73252;DHT22;61473;50.834;4.552;2022-08-19T04:16:48;28.20;52.70
73252;DHT22;61473;50.834;4.552;2022-08-19T04:19:15;28.20;52.80
73252;DHT22;61473;50.834;4.552;2022-08-19T04:21:44;28.20;52.80
73252;DHT22;61473;50.834;4.552;2022-08-19T04:24:12;28.20;52.70
73252;DHT22;61473;50.834;4.552;2022-08-19T04:26:38;28.20;52.70
73252;DHT22;61473;50.834;4.552;2022-08-19T04:29:12;28.20;52.70
73252;DHT22;61473;50.834;4.552;2022-08-19T04:31:39;28.20;52.70
73252;DHT22;61473;50.834;4.552;2022-08-19T04:34:07;28.20;52.60
73252;DHT22;61473;50.834;4.552;2022-08-19T04:36:35;28.20;52.70
73252;DHT22;61473;50.834;4.552;2022-08-19T04:39:05;28.20;52.70
73252;DHT22;61473;50.834;4.552;2022-08-19T04:41:32;28.20;52.60
73252;DHT22;61473;50.834;4.552;2022-08-19T04:44:32;28.20;52.60
73252;DHT22;61473;50.834;4.552;2022-08-19T04:46:59;28.20;52.50
73252;DHT22;61473;50.834;4.552;2022-08-19T04:49:25;28.30;52.50
73252;DHT22;61473;50.834;4.552;2022-08-19T04:51:53;28.30;52.40
73252;DHT22;61473;50.834;4.552;2022-08-19T04:54:20;28.30;52.50
73252;DHT22;61473;50.834;4.552;2022-08-19T04:56:49;28.20;52.40
73252;DHT22;61473;50.834;4.552;2022-08-19T04:59:16;28.30;52.50
73252;DHT22;61473;50.834;4.552;2022-08-19T05:01:44;28.20;52.50
73252;DHT22;61473;50.834;4.552;2022-08-19T05:04:17;28.30;52.50
73252;DHT22;61473;50.834;4.552;2022-08-19T05:06:43;28.30;52.50
73252;DHT22;61473;50.834;4.552;2022-08-19T05:09:09;28.30;52.50
73252;DHT22;61473;50.834;4.552;2022-08-19T05:11:36;28.20;52.40
73252;DHT22;61473;50.834;4.552;2022-08-19T05:14:05;28.20;52.40
73252;DHT22;61473;50.834;4.552;2022-08-19T05:16:31;28.20;52.40
73252;DHT22;61473;50.834;4.552;2022-08-19T05:18:57;28.30;52.40
73252;DHT22;61473;50.834;4.552;2022-08-19T05:21:42;28.20;52.40
73252;DHT22;61473;50.834;4.552;2022-08-19T05:24:27;28.30;52.50
73252;DHT22;61473;50.834;4.552;2022-08-19T05:26:54;28.30;52.50
73252;DHT22;61473;50.834;4.552;2022-08-19T05:29:23;28.30;52.50
73252;DHT22;61473;50.834;4.552;2022-08-19T05:31:50;28.30;52.50
73252;DHT22;61473;50.834;4.552;2022-08-19T05:34:18;28.30;52.50
73252;DHT22;61473;50.834;4.552;2022-08-19T05:36:47;28.20;52.40
73252;DHT22;61473;50.834;4.552;2022-08-19T05:39:15;28.20;52.40
73252;DHT22;61473;50.834;4.552;2022-08-19T05:41:51;28.30;52.40
73252;DHT22;61473;50.834;4.552;2022-08-19T05:44:19;28.20;52.40
73252;DHT22;61473;50.834;4.552;2022-08-19T05:46:47;28.30;52.40
73252;DHT22;61473;50.834;4.552;2022-08-19T05:49:14;28.20;53.00
73252;DHT22;61473;50.834;4.552;2022-08-19T05:51:42;28.20;52.30
73252;DHT22;61473;50.834;4.552;2022-08-19T05:54:08;28.20;52.30
73252;DHT22;61473;50.834;4.552;2022-08-19T05:56:35;28.30;52.30
73252;DHT22;61473;50.834;4.552;2022-08-19T05:59:05;28.30;52.30
73252;DHT22;61473;50.834;4.552;2022-08-19T06:01:34;28.30;52.30
73252;DHT22;61473;50.834;4.552;2022-08-19T06:04:01;28.30;52.30
73252;DHT22;61473;50.834;4.552;2022-08-19T06:06:26;28.30;52.30
73252;DHT22;61473;50.834;4.552;2022-08-19T06:08:52;28.30;52.30
73252;DHT22;61473;50.834;4.552;2022-08-19T06:11:24;28.20;52.30
73252;DHT22;61473;50.834;4.552;2022-08-19T06:13:53;28.20;52.30
73252;DHT22;61473;50.834;4.552;2022-08-19T06:16:20;28.20;52.20
73252;DHT22;61473;50.834;4.552;2022-08-19T06:18:50;28.20;52.30
73252;DHT22;61473;50.834;4.552;2022-08-19T06:21:19;28.30;52.30
73252;DHT22;61473;50.834;4.552;2022-08-19T06:23:46;28.30;52.30
73252;DHT22;61473;50.834;4.552;2022-08-19T06:26:13;28.30;52.20
73252;DHT22;61473;50.834;4.552;2022-08-19T06:28:39;28.30;52.20
73252;DHT22;61473;50.834;4.552;2022-08-19T06:31:16;28.30;52.10
73252;DHT22;61473;50.834;4.552;2022-08-19T06:33:43;28.30;52.10
73252;DHT22;61473;50.834;4.552;2022-08-19T06:36:26;28.30;52.10
73252;DHT22;61473;50.834;4.552;2022-08-19T06:38:57;28.30;52.00
73252;DHT22;61473;50.834;4.552;2022-08-19T06:41:26;28.30;52.10
73252;DHT22;61473;50.834;4.552;2022-08-19T06:43:53;28.30;52.00
73252;DHT22;61473;50.834;4.552;2022-08-19T06:46:20;28.30;52.00
73252;DHT22;61473;50.834;4.552;2022-08-19T06:48:46;28.40;52.00
73252;DHT22;61473;50.834;4.552;2022-08-19T06:51:17;28.40;51.90
73252;DHT22;61473;50.834;4.552;2022-08-19T06:53:47;28.40;51.90
73252;DHT22;61473;50.834;4.552;2022-08-19T06:56:14;28.50;51.90
73252;DHT22;61473;50.834;4.552;2022-08-19T06:58:41;28.50;51.80
73252;DHT22;61473;50.834;4.552;2022-08-19T07:01:07;28.50;51.70
73252;DHT22;61473;50.834;4.552;2022-08-19T07:03:35;28.50;51.60
73252;DHT22;61473;50.834;4.552;2022-08-19T07:06:13;28.50;51.50
73252;DHT22;61473;50.834;4.552;2022-08-19T07:08:41;28.50;51.50
73252;DHT22;61473;50.834;4.552;2022-08-19T07:11:09;28.50;51.50
73252;DHT22;61473;50.834;4.552;2022-08-19T07:13:35;28.60;51.60
73252;DHT22;61473;50.834;4.552;2022-08-19T07:16:12;28.60;51.60
73252;DHT22;61473;50.834;4.552;2022-08-19T07:18:38;28.60;51.60
73252;DHT22;61473;50.834;4.552;2022-08-19T07:21:07;28.60;51.60
73252;DHT22;61473;50.834;4.552;2022-08-19T07:23:33;28.60;51.60
73252;DHT22;61473;50.834;4.552;2022-08-19T07:26:09;28.60;51.60
73252;DHT22;61473;50.834;4.552;2022-08-19T07:28:35;28.60;51.70
73252;DHT22;61473;50.834;4.552;2022-08-19T07:31:19;28.60;51.60
73252;DHT22;61473;50.834;4.552;2022-08-19T07:33:47;28.60;51.60
73252;DHT22;61473;50.834;4.552;2022-08-19T07:36:16;28.60;51.60
73252;DHT22;61473;50.834;4.552;2022-08-19T07:38:45;28.60;51.60
73252;DHT22;61473;50.834;4.552;2022-08-19T07:41:14;28.60;51.50
73252;DHT22;61473;50.834;4.552;2022-08-19T07:43:41;28.60;51.50
73252;DHT22;61473;50.834;4.552;2022-08-19T07:46:09;28.60;51.50
73252;DHT22;61473;50.834;4.552;2022-08-19T07:48:35;28.60;51.50
73252;DHT22;61473;50.834;4.552;2022-08-19T07:51:04;28.70;51.50
73252;DHT22;61473;50.834;4.552;2022-08-19T07:53:31;28.70;51.50
73252;DHT22;61473;50.834;4.552;2022-08-19T07:56:00;28.70;51.50
73252;DHT22;61473;50.834;4.552;2022-08-19T07:58:28;28.70;51.50
73252;DHT22;61473;50.834;4.552;2022-08-19T08:00:54;28.70;51.50
73252;DHT22;61473;50.834;4.552;2022-08-19T08:03:21;28.70;51.50
73252;DHT22;61473;50.834;4.552;2022-08-19T08:06:07;28.70;51.50
73252;DHT22;61473;50.834;4.552;2022-08-19T08:08:52;28.70;51.50
73252;DHT22;61473;50.834;4.552;2022-08-19T08:11:44;28.70;51.50
73252;DHT22;61473;50.834;4.552;2022-08-19T08:14:34;28.70;51.50
73252;DHT22;61473;50.834;4.552;2022-08-19T08:17:00;28.70;51.50
73252;DHT22;61473;50.834;4.552;2022-08-19T08:19:27;28.70;52.10
73252;DHT22;61473;50.834;4.552;2022-08-19T08:21:55;28.70;51.50
73252;DHT22;61473;50.834;4.552;2022-08-19T08:24:22;28.70;51.60
73252;DHT22;61473;50.834;4.552;2022-08-19T08:26:47;28.70;51.50
73252;DHT22;61473;50.834;4.552;2022-08-19T08:29:14;28.70;51.50
73252;DHT22;61473;50.834;4.552;2022-08-19T08:31:42;28.70;51.50
73252;DHT22;61473;50.834;4.552;2022-08-19T08:34:10;28.80;51.60
73252;DHT22;61473;50.834;4.552;2022-08-19T08:36:37;28.80;51.60
73252;DHT22;61473;50.834;4.552;2022-08-19T08:39:08;28.80;51.60
73252;DHT22;61473;50.834;4.552;2022-08-19T08:47:09;28.80;51.60
73252;DHT22;61473;50.834;4.552;2022-08-19T08:49:50;28.80;51.60
73252;DHT22;61473;50.834;4.552;2022-08-19T08:52:26;28.80;52.30
73252;DHT22;61473;50.834;4.552;2022-08-19T08:54:55;28.80;51.70
73252;DHT22;61473;50.834;4.552;2022-08-19T08:59:57;28.80;51.70
73252;DHT22;61473;50.834;4.552;2022-08-19T09:02:23;28.80;51.70
73252;DHT22;61473;50.834;4.552;2022-08-19T09:04:49;28.80;51.70
73252;DHT22;61473;50.834;4.552;2022-08-19T09:09:57;28.80;51.70
73252;DHT22;61473;50.834;4.552;2022-08-19T09:12:48;28.80;51.70
73252;DHT22;61473;50.834;4.552;2022-08-19T09:15:22;28.80;51.70
73252;DHT22;61473;50.834;4.552;2022-08-19T09:17:50;28.80;51.70
73252;DHT22;61473;50.834;4.552;2022-08-19T09:20:20;28.80;51.70
73252;DHT22;61473;50.834;4.552;2022-08-19T09:22:46;28.80;51.70
73252;DHT22;61473;50.834;4.552;2022-08-19T09:25:16;28.80;51.80
73252;DHT22;61473;50.834;4.552;2022-08-19T09:27:43;28.80;51.80
73252;DHT22;61473;50.834;4.552;2022-08-19T09:30:15;28.80;51.80
73252;DHT22;61473;50.834;4.552;2022-08-19T09:32:41;28.80;51.80
73252;DHT22;61473;50.834;4.552;2022-08-19T09:35:08;28.80;51.80
73252;DHT22;61473;50.834;4.552;2022-08-19T09:37:34;28.80;51.80
73252;DHT22;61473;50.834;4.552;2022-08-19T09:40:00;28.80;51.80
73252;DHT22;61473;50.834;4.552;2022-08-19T09:42:26;28.80;51.90
73252;DHT22;61473;50.834;4.552;2022-08-19T09:44:52;28.80;51.90
73252;DHT22;61473;50.834;4.552;2022-08-19T09:47:17;28.80;51.90
73252;DHT22;61473;50.834;4.552;2022-08-19T09:49:43;28.80;51.90
73252;DHT22;61473;50.834;4.552;2022-08-19T09:52:10;28.80;51.90
73252;DHT22;61473;50.834;4.552;2022-08-19T09:54:37;28.80;51.90
73252;DHT22;61473;50.834;4.552;2022-08-19T09:57:04;28.80;52.00
73252;DHT22;61473;50.834;4.552;2022-08-19T09:59:30;28.80;51.90
73252;DHT22;61473;50.834;4.552;2022-08-19T10:01:56;28.80;51.90
73252;DHT22;61473;50.834;4.552;2022-08-19T10:04:22;28.80;52.00
73252;DHT22;61473;50.834;4.552;2022-08-19T10:06:49;28.80;52.00
73252;DHT22;61473;50.834;4.552;2022-08-19T10:09:17;28.80;52.00
73252;DHT22;61473;50.834;4.552;2022-08-19T10:11:44;28.80;52.00
73252;DHT22;61473;50.834;4.552;2022-08-19T10:14:15;28.80;52.00
73252;DHT22;61473;50.834;4.552;2022-08-19T10:16:42;28.80;52.00
73252;DHT22;61473;50.834;4.552;2022-08-19T10:19:08;28.80;52.00
73252;DHT22;61473;50.834;4.552;2022-08-19T10:21:35;28.80;52.00
73252;DHT22;61473;50.834;4.552;2022-08-19T10:24:03;28.80;52.00
73252;DHT22;61473;50.834;4.552;2022-08-19T10:26:35;28.90;52.10
73252;DHT22;61473;50.834;4.552;2022-08-19T10:29:04;28.90;52.10
73252;DHT22;61473;50.834;4.552;2022-08-19T10:31:31;28.90;52.10
73252;DHT22;61473;50.834;4.552;2022-08-19T10:33:58;28.90;52.10
73252;DHT22;61473;50.834;4.552;2022-08-19T10:36:28;28.90;52.10
73252;DHT22;61473;50.834;4.552;2022-08-19T10:38:56;28.90;52.00
73252;DHT22;61473;50.834;4.552;2022-08-19T10:41:27;28.90;52.10
73252;DHT22;61473;50.834;4.552;2022-08-19T10:43:58;28.90;52.10
73252;DHT22;61473;50.834;4.552;2022-08-19T10:46:25;28.90;52.10
73252;DHT22;61473;50.834;4.552;2022-08-19T10:48:52;28.90;52.10
73252;DHT22;61473;50.834;4.552;2022-08-19T10:51:18;28.90;52.10
73252;DHT22;61473;50.834;4.552;2022-08-19T10:54:03;29.00;52.10
73252;DHT22;61473;50.834;4.552;2022-08-19T10:56:29;29.00;52.10
73252;DHT22;61473;50.834;4.552;2022-08-19T10:59:14;28.90;52.10
73252;DHT22;61473;50.834;4.552;2022-08-19T11:01:42;29.00;52.20
73252;DHT22;61473;50.834;4.552;2022-08-19T11:04:09;29.00;52.20
73252;DHT22;61473;50.834;4.552;2022-08-19T11:06:37;28.90;52.20
73252;DHT22;61473;50.834;4.552;2022-08-19T11:09:04;28.90;52.80
73252;DHT22;61473;50.834;4.552;2022-08-19T11:11:32;29.00;52.20
73252;DHT22;61473;50.834;4.552;2022-08-19T11:13:58;28.90;52.20
73252;DHT22;61473;50.834;4.552;2022-08-19T11:16:25;28.90;52.20
73252;DHT22;61473;50.834;4.552;2022-08-19T11:18:56;28.90;52.30
73252;DHT22;61473;50.834;4.552;2022-08-19T11:21:28;28.90;52.30
73252;DHT22;61473;50.834;4.552;2022-08-19T11:23:59;28.90;52.30
73252;DHT22;61473;50.834;4.552;2022-08-19T11:26:26;28.90;52.30
73252;DHT22;61473;50.834;4.552;2022-08-19T11:28:53;28.90;52.30
73252;DHT22;61473;50.834;4.552;2022-08-19T11:31:25;29.00;53.00
73252;DHT22;61473;50.834;4.552;2022-08-19T11:33:51;29.00;52.30
73252;DHT22;61473;50.834;4.552;2022-08-19T11:36:19;29.00;52.30
73252;DHT22;61473;50.834;4.552;2022-08-19T11:38:47;29.00;52.40
73252;DHT22;61473;50.834;4.552;2022-08-19T11:41:15;28.90;53.00
73252;DHT22;61473;50.834;4.552;2022-08-19T11:43:41;29.00;52.40
73252;DHT22;61473;50.834;4.552;2022-08-19T11:46:09;29.00;52.30
73252;DHT22;61473;50.834;4.552;2022-08-19T11:48:36;29.00;52.50
73252;DHT22;61473;50.834;4.552;2022-08-19T11:51:13;28.90;52.40
73252;DHT22;61473;50.834;4.552;2022-08-19T11:53:40;29.00;52.50
73252;DHT22;61473;50.834;4.552;2022-08-19T11:56:07;28.90;52.50
73252;DHT22;61473;50.834;4.552;2022-08-19T11:58:33;29.00;52.50
73252;DHT22;61473;50.834;4.552;2022-08-19T12:00:59;29.00;52.50
73252;DHT22;61473;50.834;4.552;2022-08-19T12:03:25;29.00;52.60
73252;DHT22;61473;50.834;4.552;2022-08-19T12:05:51;29.00;52.60
73252;DHT22;61473;50.834;4.552;2022-08-19T12:08:18;29.00;52.60
73252;DHT22;61473;50.834;4.552;2022-08-19T12:10:44;29.00;52.60
73252;DHT22;61473;50.834;4.552;2022-08-19T12:13:12;29.00;52.50
73252;DHT22;61473;50.834;4.552;2022-08-19T12:15:45;29.00;52.70
73252;DHT22;61473;50.834;4.552;2022-08-19T12:18:11;29.00;52.50
73252;DHT22;61473;50.834;4.552;2022-08-19T12:20:40;29.00;52.60
73252;DHT22;61473;50.834;4.552;2022-08-19T12:23:08;29.00;52.60
73252;DHT22;61473;50.834;4.552;2022-08-19T12:25:36;29.00;52.60
73252;DHT22;61473;50.834;4.552;2022-08-19T12:28:03;29.00;52.60
73252;DHT22;61473;50.834;4.552;2022-08-19T12:30:29;29.00;52.60
73252;DHT22;61473;50.834;4.552;2022-08-19T12:32:54;29.00;52.60
73252;DHT22;61473;50.834;4.552;2022-08-19T12:35:20;29.00;52.50
73252;DHT22;61473;50.834;4.552;2022-08-19T12:37:48;29.10;52.50
73252;DHT22;61473;50.834;4.552;2022-08-19T12:40:15;29.10;52.50
73252;DHT22;61473;50.834;4.552;2022-08-19T12:42:41;29.10;52.60
73252;DHT22;61473;50.834;4.552;2022-08-19T12:45:12;29.00;52.50
73252;DHT22;61473;50.834;4.552;2022-08-19T12:47:39;29.00;52.50
73252;DHT22;61473;50.834;4.552;2022-08-19T12:50:05;29.10;52.60
73252;DHT22;61473;50.834;4.552;2022-08-19T12:52:36;29.10;52.50
73252;DHT22;61473;50.834;4.552;2022-08-19T12:55:08;29.10;52.50
73252;DHT22;61473;50.834;4.552;2022-08-19T12:57:34;29.10;52.50
73252;DHT22;61473;50.834;4.552;2022-08-19T13:00:21;29.10;52.50
73252;DHT22;61473;50.834;4.552;2022-08-19T13:02:48;29.10;52.50
73252;DHT22;61473;50.834;4.552;2022-08-19T13:05:19;29.10;52.50
73252;DHT22;61473;50.834;4.552;2022-08-19T13:07:46;29.10;52.50
73252;DHT22;61473;50.834;4.552;2022-08-19T13:10:15;29.20;52.50
73252;DHT22;61473;50.834;4.552;2022-08-19T13:12:42;29.20;52.50
73252;DHT22;61473;50.834;4.552;2022-08-19T13:15:08;29.20;52.40
73252;DHT22;61473;50.834;4.552;2022-08-19T13:17:35;29.20;52.40
73252;DHT22;61473;50.834;4.552;2022-08-19T13:20:01;29.20;52.50
73252;DHT22;61473;50.834;4.552;2022-08-19T13:22:27;29.20;52.50
73252;DHT22;61473;50.834;4.552;2022-08-19T13:24:53;29.20;52.50
73252;DHT22;61473;50.834;4.552;2022-08-19T13:27:18;29.20;52.50
73252;DHT22;61473;50.834;4.552;2022-08-19T13:29:44;29.30;52.50
73252;DHT22;61473;50.834;4.552;2022-08-19T13:32:29;29.30;52.50
73252;DHT22;61473;50.834;4.552;2022-08-19T13:35:15;29.30;52.40
73252;DHT22;61473;50.834;4.552;2022-08-19T13:37:41;29.30;52.50
73252;DHT22;61473;50.834;4.552;2022-08-19T13:40:09;29.30;52.40
73252;DHT22;61473;50.834;4.552;2022-08-19T13:42:41;29.30;52.40
73252;DHT22;61473;50.834;4.552;2022-08-19T13:45:08;29.30;52.30
73252;DHT22;61473;50.834;4.552;2022-08-19T13:47:34;29.30;52.40
73252;DHT22;61473;50.834;4.552;2022-08-19T13:50:03;29.30;52.40
73252;DHT22;61473;50.834;4.552;2022-08-19T13:52:30;29.30;52.30
73252;DHT22;61473;50.834;4.552;2022-08-19T13:54:56;29.30;52.40
73252;DHT22;61473;50.834;4.552;2022-08-19T13:57:22;29.30;52.30
73252;DHT22;61473;50.834;4.552;2022-08-19T13:59:48;29.30;52.30
73252;DHT22;61473;50.834;4.552;2022-08-19T14:02:14;29.30;52.40
73252;DHT22;61473;50.834;4.552;2022-08-19T14:04:40;29.30;52.30
73252;DHT22;61473;50.834;4.552;2022-08-19T14:07:05;29.40;52.30
73252;DHT22;61473;50.834;4.552;2022-08-19T14:09:31;29.30;52.30
73252;DHT22;61473;50.834;4.552;2022-08-19T14:11:57;29.30;52.30
73252;DHT22;61473;50.834;4.552;2022-08-19T14:14:23;29.40;52.30
73252;DHT22;61473;50.834;4.552;2022-08-19T14:16:48;29.40;52.30
73252;DHT22;61473;50.834;4.552;2022-08-19T14:19:14;29.40;52.30
73252;DHT22;61473;50.834;4.552;2022-08-19T14:21:40;29.30;52.30
73252;DHT22;61473;50.834;4.552;2022-08-19T14:24:07;29.40;52.30
73252;DHT22;61473;50.834;4.552;2022-08-19T14:26:32;29.40;52.30
73252;DHT22;61473;50.834;4.552;2022-08-19T14:28:58;29.40;52.40
73252;DHT22;61473;50.834;4.552;2022-08-19T14:31:24;29.40;52.40
73252;DHT22;61473;50.834;4.552;2022-08-19T14:33:51;29.30;52.30
73252;DHT22;61473;50.834;4.552;2022-08-19T14:36:18;29.30;52.30
73252;DHT22;61473;50.834;4.552;2022-08-19T14:38:47;29.30;52.30
73252;DHT22;61473;50.834;4.552;2022-08-19T14:41:16;29.30;52.30
73252;DHT22;61473;50.834;4.552;2022-08-19T14:43:44;29.30;52.30
73252;DHT22;61473;50.834;4.552;2022-08-19T14:46:17;29.30;52.30
73252;DHT22;61473;50.834;4.552;2022-08-19T14:48:45;29.40;52.50
73252;DHT22;61473;50.834;4.552;2022-08-19T14:51:11;29.40;52.50
73252;DHT22;61473;50.834;4.552;2022-08-19T14:53:38;29.40;52.40
73252;DHT22;61473;50.834;4.552;2022-08-19T14:56:11;29.40;52.50
73252;DHT22;61473;50.834;4.552;2022-08-19T14:58:38;29.40;52.50
73252;DHT22;61473;50.834;4.552;2022-08-19T15:01:06;29.40;52.50
73252;DHT22;61473;50.834;4.552;2022-08-19T15:03:32;29.30;52.40
73252;DHT22;61473;50.834;4.552;2022-08-19T15:06:00;29.40;52.50
73252;DHT22;61473;50.834;4.552;2022-08-19T15:08:27;29.40;52.50
73252;DHT22;61473;50.834;4.552;2022-08-19T15:10:53;29.40;52.50
73252;DHT22;61473;50.834;4.552;2022-08-19T15:13:19;29.30;52.50
73252;DHT22;61473;50.834;4.552;2022-08-19T15:15:45;29.30;52.50
73252;DHT22;61473;50.834;4.552;2022-08-19T15:18:10;29.30;52.60
73252;DHT22;61473;50.834;4.552;2022-08-19T15:20:37;29.30;52.70
73252;DHT22;61473;50.834;4.552;2022-08-19T15:23:03;29.30;52.70
73252;DHT22;61473;50.834;4.552;2022-08-19T15:25:29;29.30;52.70
73252;DHT22;61473;50.834;4.552;2022-08-19T15:27:55;29.30;52.70
73252;DHT22;61473;50.834;4.552;2022-08-19T15:30:25;29.30;52.70
73252;DHT22;61473;50.834;4.552;2022-08-19T15:32:52;29.30;52.80
73252;DHT22;61473;50.834;4.552;2022-08-19T15:35:21;29.30;52.80
73252;DHT22;61473;50.834;4.552;2022-08-19T15:37:52;29.30;52.80
73252;DHT22;61473;50.834;4.552;2022-08-19T15:40:20;29.30;52.80
73252;DHT22;61473;50.834;4.552;2022-08-19T15:42:47;29.30;52.80
73252;DHT22;61473;50.834;4.552;2022-08-19T15:45:14;29.30;52.90
73252;DHT22;61473;50.834;4.552;2022-08-19T15:47:40;29.30;52.90
73252;DHT22;61473;50.834;4.552;2022-08-19T15:50:15;29.30;52.90